createdAt,value
2018-03-27T00:01:05.127Z,4.47
2018-03-27T00:03:38.753Z,4.50
2018-03-27T00:06:12.394Z,4.53
2018-03-27T00:08:45.982Z,4.58
2018-03-27T00:11:19.557Z,4.57
2018-03-27T00:13:53.233Z,4.58
2018-03-27T00:16:26.900Z,4.60
2018-03-27T00:19:00.425Z,4.55
2018-03-27T00:21:33.947Z,4.51
2018-03-27T00:24:07.453Z,4.53
2018-03-27T00:26:53.050Z,4.52
2018-03-27T00:29:38.707Z,4.55
2018-03-27T00:32:24.416Z,4.52
2018-03-27T00:35:10.050Z,4.45
2018-03-27T00:37:55.704Z,4.41
2018-03-27T00:40:41.193Z,4.36
2018-03-27T00:43:14.962Z,4.36
2018-03-27T00:45:48.631Z,4.35
2018-03-27T00:48:22.236Z,4.35
2018-03-27T00:50:55.842Z,4.38
2018-03-27T00:53:29.552Z,4.38
2018-03-27T00:56:06.186Z,4.38
2018-03-27T00:58:39.850Z,4.33
2018-03-27T01:01:13.426Z,4.26
2018-03-27T01:03:47.179Z,4.20
2018-03-27T01:06:20.799Z,4.08
2018-03-27T01:08:54.346Z,4.03
2018-03-27T01:11:27.920Z,4.00
2018-03-27T01:14:01.620Z,3.92
2018-03-27T01:16:35.223Z,3.87
2018-03-27T01:19:08.741Z,3.78
2018-03-27T01:21:42.333Z,3.74
2018-03-27T01:24:15.978Z,3.66
2018-03-27T01:26:52.596Z,3.65
2018-03-27T01:29:26.215Z,3.61
2018-03-27T01:31:59.738Z,3.52
2018-03-27T01:34:33.448Z,3.45
2018-03-27T01:37:06.965Z,3.43
2018-03-27T01:39:40.531Z,3.38
2018-03-27T01:42:14.148Z,3.32
2018-03-27T01:44:47.753Z,3.19
2018-03-27T01:47:21.397Z,3.05
2018-03-27T01:49:55.040Z,2.97
2018-03-27T01:52:28.789Z,2.98
2018-03-27T01:55:03.080Z,2.94
2018-03-27T01:57:36.665Z,2.99
2018-03-27T02:00:10.304Z,2.99
2018-03-27T02:02:43.966Z,2.97
2018-03-27T02:05:17.521Z,2.90
2018-03-27T02:07:51.137Z,2.82
2018-03-27T02:10:24.755Z,2.87
2018-03-27T02:13:04.067Z,2.81
2018-03-27T02:15:43.583Z,2.74
2018-03-27T02:18:22.789Z,2.62
2018-03-27T02:21:02.065Z,2.71
2018-03-27T02:23:35.791Z,2.71
2018-03-27T02:26:09.445Z,2.69
2018-03-27T02:28:43.008Z,2.67
2018-03-27T02:31:16.672Z,2.65
2018-03-27T02:33:50.334Z,2.64
2018-03-27T02:36:23.897Z,2.59
2018-03-27T02:38:57.552Z,2.55
2018-03-27T02:41:31.174Z,2.57
2018-03-27T02:44:04.808Z,2.58
2018-03-27T02:46:38.503Z,2.63
2018-03-27T02:49:12.053Z,2.58
2018-03-27T02:51:45.756Z,2.51
2018-03-27T02:54:19.412Z,2.44
2018-03-27T02:56:53.053Z,2.37
2018-03-27T02:59:26.657Z,2.38
2018-03-27T03:02:00.231Z,2.39
2018-03-27T03:04:33.865Z,2.41
2018-03-27T03:07:07.446Z,2.34
2018-03-27T03:09:41.026Z,2.34
2018-03-27T03:12:14.632Z,2.23
2018-03-27T03:14:48.405Z,2.21
2018-03-27T03:17:21.962Z,2.22
2018-03-27T03:19:55.478Z,2.16
2018-03-27T03:22:29.090Z,2.10
2018-03-27T03:25:02.670Z,2.08
2018-03-27T03:27:36.279Z,1.97
2018-03-27T03:30:10.003Z,1.98
2018-03-27T03:32:43.616Z,2.12
2018-03-27T03:35:17.358Z,2.24
2018-03-27T03:37:50.952Z,2.32
2018-03-27T03:40:24.493Z,2.29
2018-03-27T03:42:58.233Z,2.33
2018-03-27T03:45:31.868Z,2.40
2018-03-27T03:48:05.631Z,2.43
2018-03-27T03:50:39.289Z,2.41
2018-03-27T03:53:12.856Z,2.40
2018-03-27T03:55:46.548Z,2.32
2018-03-27T03:58:20.171Z,2.31
2018-03-27T04:00:53.735Z,2.31
2018-03-27T04:03:27.274Z,2.36
2018-03-27T04:06:00.964Z,2.43
2018-03-27T04:08:34.507Z,2.47
2018-03-27T04:11:08.127Z,2.50
2018-03-27T04:13:41.668Z,2.48
2018-03-27T04:16:15.303Z,2.51
2018-03-27T04:18:48.839Z,2.44
2018-03-27T04:21:22.373Z,2.40
2018-03-27T04:23:56.068Z,2.36
2018-03-27T04:26:29.567Z,2.31
2018-03-27T04:29:03.279Z,2.21
2018-03-27T04:31:36.799Z,2.05
2018-03-27T04:34:10.343Z,1.87
2018-03-27T04:36:44.037Z,1.92
2018-03-27T04:39:17.672Z,1.98
2018-03-27T04:41:51.332Z,2.05
2018-03-27T04:44:25.090Z,2.14
2018-03-27T04:46:58.722Z,2.21
2018-03-27T04:49:32.370Z,2.26
2018-03-27T04:52:05.914Z,2.30
2018-03-27T04:54:39.591Z,2.27
2018-03-27T04:57:13.287Z,2.25
2018-03-27T04:59:46.900Z,2.26
2018-03-27T05:02:20.500Z,2.30
2018-03-27T05:04:54.059Z,2.32
2018-03-27T05:07:27.644Z,2.20
2018-03-27T05:10:01.386Z,2.15
2018-03-27T05:12:35.150Z,2.20
2018-03-27T05:15:08.852Z,2.21
2018-03-27T05:17:42.580Z,2.21
2018-03-27T05:20:16.163Z,2.20
2018-03-27T05:22:49.842Z,2.20
2018-03-27T05:25:23.542Z,2.29
2018-03-27T05:27:57.408Z,2.24
2018-03-27T05:30:31.100Z,2.30
2018-03-27T05:33:04.782Z,2.31
2018-03-27T05:35:38.537Z,2.31
2018-03-27T05:38:12.066Z,2.31
2018-03-27T05:40:45.775Z,2.33
2018-03-27T05:43:19.252Z,2.34
2018-03-27T05:45:52.808Z,2.37
2018-03-27T05:48:26.586Z,2.38
2018-03-27T05:51:00.281Z,2.47
2018-03-27T05:53:33.917Z,2.53
2018-03-27T05:56:07.465Z,2.59
2018-03-27T05:58:41.101Z,2.65
2018-03-27T06:01:14.677Z,2.70
2018-03-27T06:03:48.233Z,2.69
2018-03-27T06:06:21.820Z,2.72
2018-03-27T06:08:55.487Z,2.77
2018-03-27T06:11:29.164Z,2.74
2018-03-27T06:14:02.770Z,2.76
2018-03-27T06:16:36.466Z,2.70
2018-03-27T06:19:10.293Z,2.66
2018-03-27T06:21:44.000Z,2.65
2018-03-27T06:24:17.516Z,2.66
2018-03-27T06:26:51.064Z,2.66
2018-03-27T06:29:24.663Z,2.72
2018-03-27T06:31:58.459Z,2.83
2018-03-27T06:34:32.112Z,2.88
2018-03-27T06:40:25.194Z,3.01
2018-03-27T06:42:58.816Z,3.07
2018-03-27T06:45:32.605Z,3.19
2018-03-27T06:48:06.243Z,3.32
2018-03-27T06:50:39.862Z,3.52
2018-03-27T06:53:13.601Z,3.66
2018-03-27T06:55:47.315Z,3.61
2018-03-27T06:58:20.920Z,3.59
2018-03-27T07:00:54.498Z,3.61
2018-03-27T07:03:28.156Z,3.44
2018-03-27T07:06:01.873Z,3.68
2018-03-27T07:08:35.574Z,3.64
2018-03-27T07:11:09.126Z,3.66
2018-03-27T07:13:42.654Z,3.58
2018-03-27T07:16:16.317Z,3.45
2018-03-27T07:18:49.867Z,3.68
2018-03-27T07:21:23.448Z,3.67
2018-03-27T07:23:57.174Z,3.86
2018-03-27T07:26:30.733Z,4.22
2018-03-27T07:29:04.441Z,4.75
2018-03-27T07:31:38.087Z,5.06
2018-03-27T07:34:11.768Z,5.17
2018-03-27T07:37:03.304Z,5.37
2018-03-27T07:39:36.947Z,5.38
2018-03-27T07:42:10.627Z,5.85
2018-03-27T07:44:44.306Z,6.54
2018-03-27T07:47:17.937Z,7.38
2018-03-27T07:49:51.592Z,7.92
2018-03-27T07:52:25.204Z,9.11
2018-03-27T07:54:58.704Z,9.81
2018-03-27T07:57:32.315Z,10.60
2018-03-27T08:00:06.082Z,11.45
2018-03-27T08:02:39.765Z,11.77
2018-03-27T08:05:13.412Z,11.61
2018-03-27T08:07:47.078Z,12.59
2018-03-27T08:10:20.927Z,13.34
2018-03-27T08:12:54.608Z,14.45
2018-03-27T08:15:28.315Z,15.04
2018-03-27T08:18:01.883Z,15.66
2018-03-27T08:20:35.719Z,14.69
2018-03-27T08:23:09.315Z,13.96
2018-03-27T08:25:43.077Z,14.03
2018-03-27T08:28:16.748Z,14.59
2018-03-27T08:30:50.335Z,13.84
2018-03-27T08:33:24.013Z,12.98
2018-03-27T08:35:57.661Z,13.64
2018-03-27T08:38:31.138Z,13.49
2018-03-27T08:41:04.855Z,12.55
2018-03-27T08:43:38.643Z,12.82
2018-03-27T08:46:12.423Z,11.89
2018-03-27T08:48:46.228Z,11.28
2018-03-27T08:51:19.859Z,11.47
2018-03-27T08:53:53.459Z,10.83
2018-03-27T08:56:27.115Z,10.51
2018-03-27T08:59:00.818Z,10.16
2018-03-27T09:01:34.497Z,10.70
2018-03-27T09:04:08.035Z,10.71
2018-03-27T09:12:40.186Z,10.07
2018-03-27T09:15:13.955Z,10.12
2018-03-27T09:17:47.689Z,10.12
2018-03-27T09:20:21.237Z,10.26
2018-03-27T09:22:54.946Z,10.73
2018-03-27T09:25:28.495Z,10.29
2018-03-27T09:28:02.125Z,11.44
2018-03-27T09:30:35.646Z,11.70
2018-03-27T09:33:09.232Z,12.10
2018-03-27T09:35:43.174Z,12.51
2018-03-27T09:38:16.791Z,12.65
2018-03-27T09:40:50.471Z,12.73
2018-03-27T09:43:24.144Z,12.43
2018-03-27T09:45:57.720Z,11.86
2018-03-27T09:48:31.307Z,11.36
2018-03-27T09:51:05.081Z,11.00
2018-03-27T09:53:38.904Z,10.71
2018-03-27T09:56:12.695Z,10.52
2018-03-27T09:58:46.356Z,10.27
2018-03-27T10:04:13.983Z,9.94
2018-03-27T10:06:47.521Z,9.69
2018-03-27T10:09:21.108Z,9.53
2018-03-27T10:11:54.731Z,9.60
2018-03-27T10:14:28.596Z,9.76
2018-03-27T10:17:02.239Z,10.16
2018-03-27T10:19:35.796Z,10.07
2018-03-27T10:22:09.432Z,9.85
2018-03-27T10:24:42.956Z,9.81
2018-03-27T10:27:16.921Z,10.16
2018-03-27T10:29:50.472Z,10.20
2018-03-27T10:32:24.026Z,9.92
2018-03-27T10:34:57.583Z,10.04
2018-03-27T10:37:31.115Z,10.42
2018-03-27T10:40:04.934Z,10.94
2018-03-27T10:42:38.464Z,11.19
2018-03-27T10:45:12.218Z,11.44
2018-03-27T10:47:45.828Z,11.74
2018-03-27T10:50:19.666Z,11.92
2018-03-27T10:52:53.471Z,11.85
2018-03-27T10:55:27.026Z,11.80
2018-03-27T10:58:00.604Z,11.66
2018-03-27T11:00:34.177Z,11.68
2018-03-27T11:03:07.713Z,11.75
2018-03-27T11:05:41.263Z,12.10
2018-03-27T11:08:14.913Z,11.56
2018-03-27T11:10:48.525Z,11.77
2018-03-27T11:13:22.205Z,12.44
2018-03-27T11:15:55.837Z,12.23
2018-03-27T11:18:29.664Z,12.65
2018-03-27T11:21:03.447Z,12.94
2018-03-27T11:23:37.117Z,12.51
2018-03-27T11:26:10.794Z,12.16
2018-03-27T11:28:44.509Z,12.21
2018-03-27T11:31:18.165Z,12.01
2018-03-27T11:33:51.733Z,11.87
2018-03-27T11:36:25.303Z,11.53
2018-03-27T11:38:58.890Z,11.22
2018-03-27T11:41:32.508Z,10.74
2018-03-27T11:44:06.093Z,10.82
2018-03-27T11:46:39.804Z,10.86
2018-03-27T11:49:13.547Z,10.77
2018-03-27T11:51:47.106Z,10.84
2018-03-27T11:54:20.641Z,10.97
2018-03-27T11:56:54.193Z,11.44
2018-03-27T11:59:27.778Z,11.40
2018-03-27T12:02:01.379Z,11.74
2018-03-27T12:04:35.083Z,11.62
2018-03-27T12:07:08.643Z,11.99
2018-03-27T12:09:42.192Z,11.86
2018-03-27T12:12:15.788Z,12.11
2018-03-27T12:14:49.285Z,12.35
2018-03-27T12:17:22.815Z,12.07
2018-03-27T12:19:56.390Z,11.53
2018-03-27T12:22:29.894Z,11.25
2018-03-27T12:25:03.537Z,11.36
2018-03-27T12:27:37.094Z,11.31
2018-03-27T12:30:10.656Z,11.30
2018-03-27T12:32:44.229Z,11.43
2018-03-27T12:35:17.754Z,11.43
2018-03-27T12:37:51.264Z,11.54
2018-03-27T12:40:24.808Z,11.47
2018-03-27T12:42:58.388Z,11.66
2018-03-27T12:45:32.158Z,11.54
2018-03-27T12:48:05.854Z,11.31
2018-03-27T12:50:39.558Z,11.24
2018-03-27T12:53:13.226Z,11.43
2018-03-27T12:55:47.014Z,11.51
2018-03-27T12:58:20.666Z,11.81
2018-03-27T13:00:54.391Z,11.69
2018-03-27T13:03:27.922Z,11.72
2018-03-27T13:06:01.626Z,11.48
2018-03-27T13:08:35.188Z,11.11
2018-03-27T13:11:08.775Z,11.28
2018-03-27T13:13:42.394Z,11.13
2018-03-27T13:16:15.987Z,10.99
2018-03-27T13:18:49.782Z,10.97
2018-03-27T13:21:23.583Z,11.12
2018-03-27T13:23:57.150Z,11.06
2018-03-27T13:26:30.959Z,10.94
2018-03-27T13:29:04.642Z,11.21
2018-03-27T13:31:38.210Z,11.23
2018-03-27T13:34:11.867Z,11.22
2018-03-27T13:36:45.454Z,11.34
2018-03-27T13:39:19.265Z,11.25
2018-03-27T13:41:52.867Z,10.91
2018-03-27T13:44:26.614Z,10.96
2018-03-27T13:47:00.220Z,10.73
2018-03-27T13:49:33.761Z,10.36
2018-03-27T13:52:07.549Z,10.17
2018-03-27T13:54:41.084Z,10.00
2018-03-27T13:57:14.655Z,9.71
2018-03-27T13:59:48.318Z,9.71
2018-03-27T14:02:21.849Z,9.74
2018-03-27T14:04:55.563Z,9.80
2018-03-27T14:07:29.188Z,9.75
2018-03-27T14:10:02.751Z,9.82
2018-03-27T14:12:36.383Z,9.67
2018-03-27T14:15:10.172Z,9.64
2018-03-27T14:17:43.758Z,9.56
2018-03-27T14:20:17.294Z,9.55
2018-03-27T14:22:50.888Z,9.35
2018-03-27T14:25:24.477Z,9.25
2018-03-27T14:27:58.238Z,9.24
2018-03-27T14:30:31.836Z,9.21
2018-03-27T14:33:05.579Z,9.24
2018-03-27T14:35:39.211Z,9.22
2018-03-27T14:38:12.952Z,9.23
2018-03-27T14:40:46.468Z,9.02
2018-03-27T14:43:20.117Z,8.83
2018-03-27T14:45:53.754Z,8.78
2018-03-27T14:48:27.407Z,8.71
2018-03-27T14:51:01.065Z,8.86
2018-03-27T14:53:34.611Z,8.73
2018-03-27T14:56:08.295Z,8.70
2018-03-27T14:58:41.767Z,8.71
2018-03-27T15:01:15.333Z,8.76
2018-03-27T15:03:48.965Z,8.64
2018-03-27T15:09:25.104Z,8.66
2018-03-27T15:11:58.643Z,8.56
2018-03-27T15:14:32.455Z,8.43
2018-03-27T15:17:06.134Z,8.32
2018-03-27T15:19:39.683Z,8.32
2018-03-27T15:22:13.353Z,8.24
2018-03-27T15:24:47.071Z,8.20
2018-03-27T15:27:20.700Z,8.02
2018-03-27T15:29:54.516Z,8.01
2018-03-27T15:32:28.160Z,8.00
2018-03-27T15:35:01.743Z,7.93
2018-03-27T15:37:35.301Z,8.00
2018-03-27T15:40:08.998Z,7.97
2018-03-27T15:42:42.523Z,7.93
2018-03-27T15:45:16.190Z,7.91
2018-03-27T15:47:49.759Z,7.93
2018-03-27T15:50:23.399Z,7.93
2018-03-27T15:52:56.954Z,7.80
2018-03-27T15:55:30.725Z,7.78
2018-03-27T15:58:04.429Z,7.78
2018-03-27T16:00:38.093Z,7.73
2018-03-27T16:03:11.714Z,7.62
2018-03-27T16:05:45.308Z,7.64
2018-03-27T16:08:19.013Z,7.69
2018-03-27T16:10:52.741Z,7.62
2018-03-27T16:13:26.431Z,7.53
2018-03-27T16:16:00.138Z,7.46
2018-03-27T16:18:33.744Z,7.37
2018-03-27T16:21:07.299Z,7.36
2018-03-27T16:23:40.830Z,7.33
2018-03-27T16:26:14.515Z,7.24
2018-03-27T16:28:48.058Z,7.30
2018-03-27T16:31:21.741Z,7.23
2018-03-27T16:33:55.346Z,7.08
2018-03-27T16:36:28.858Z,7.14
2018-03-27T16:39:02.557Z,7.07
2018-03-27T16:41:36.356Z,7.08
2018-03-27T16:44:10.077Z,7.06
2018-03-27T16:46:43.679Z,6.98
2018-03-27T16:49:17.361Z,6.87
2018-03-27T16:51:51.095Z,6.84
2018-03-27T16:54:24.914Z,6.76
2018-03-27T16:56:58.715Z,6.73
2018-03-27T16:59:32.338Z,6.67
2018-03-27T17:02:06.028Z,6.45
2018-03-27T17:04:39.537Z,6.35
2018-03-27T17:07:13.213Z,6.32
2018-03-27T17:09:57.724Z,6.21
2018-03-27T17:12:31.290Z,6.10
2018-03-27T17:15:07.813Z,6.10
2018-03-27T17:17:41.347Z,6.09
2018-03-27T17:20:15.052Z,6.04
2018-03-27T17:22:48.609Z,5.97
2018-03-27T17:25:22.185Z,5.94
2018-03-27T17:27:55.706Z,5.90
2018-03-27T17:30:29.255Z,5.84
2018-03-27T17:33:03.032Z,5.83
2018-03-27T17:35:36.603Z,5.78
2018-03-27T17:38:10.214Z,5.78
2018-03-27T17:40:43.735Z,7.23
2018-03-27T17:43:17.462Z,7.41
2018-03-27T17:45:51.103Z,6.41
2018-03-27T17:48:24.664Z,6.35
2018-03-27T17:50:58.317Z,6.30
2018-03-27T17:53:31.945Z,6.38
2018-03-27T17:56:05.482Z,6.42
2018-03-27T17:58:39.071Z,6.22
2018-03-27T18:01:12.761Z,6.14
2018-03-27T18:03:46.305Z,6.07
2018-03-27T18:06:19.975Z,6.13
2018-03-27T18:08:53.726Z,6.15
2018-03-27T18:11:27.361Z,6.19
2018-03-27T18:14:00.974Z,5.91
2018-03-27T18:16:34.478Z,5.91
2018-03-27T18:19:08.134Z,5.83
2018-03-27T18:21:41.828Z,5.90
2018-03-27T18:24:15.412Z,5.93
2018-03-27T18:26:49.156Z,5.91
2018-03-27T18:29:23.037Z,5.81
2018-03-27T18:31:56.571Z,5.77
2018-03-27T18:34:30.123Z,5.76
2018-03-27T18:37:03.652Z,5.78
2018-03-27T18:39:37.282Z,5.75
2018-03-27T18:42:10.825Z,5.70
2018-03-27T18:44:44.384Z,5.74
2018-03-27T18:47:17.907Z,5.77
2018-03-27T18:49:51.553Z,5.72
2018-03-27T18:52:25.098Z,5.82
2018-03-27T18:54:58.856Z,5.84
2018-03-27T18:57:32.408Z,5.83
2018-03-27T19:00:06.145Z,5.92
2018-03-27T19:02:39.758Z,5.69
2018-03-27T19:05:13.330Z,5.71
2018-03-27T19:07:46.982Z,5.71
2018-03-27T19:10:20.555Z,5.68
2018-03-27T19:12:54.242Z,5.74
2018-03-27T19:15:27.968Z,5.77
2018-03-27T19:18:01.620Z,5.77
2018-03-27T19:20:35.220Z,5.75
2018-03-27T19:23:08.891Z,5.79
2018-03-27T19:25:42.485Z,5.76
2018-03-27T19:28:16.094Z,5.74
2018-03-27T19:30:49.748Z,5.74
2018-03-27T19:33:23.406Z,5.78
2018-03-27T19:35:57.256Z,5.80
2018-03-27T19:38:31.077Z,5.81
2018-03-27T19:41:04.843Z,5.85
2018-03-27T19:43:38.492Z,5.80
2018-03-27T19:46:12.139Z,5.88
2018-03-27T19:48:45.812Z,5.86
2018-03-27T19:51:19.544Z,5.80
2018-03-27T19:53:53.083Z,5.82
2018-03-27T19:56:26.685Z,5.81
2018-03-27T19:59:00.313Z,5.81
2018-03-27T20:01:33.951Z,5.81
2018-03-27T20:04:07.809Z,5.81
2018-03-27T20:06:41.591Z,5.81
2018-03-27T20:09:15.262Z,5.83
2018-03-27T20:11:48.997Z,5.80
2018-03-27T20:14:22.622Z,5.82
2018-03-27T20:16:56.283Z,5.78
2018-03-27T20:19:29.887Z,5.73
2018-03-27T20:22:03.433Z,5.73
2018-03-27T20:24:37.130Z,5.77
2018-03-27T20:27:10.795Z,5.76
2018-03-27T20:29:44.450Z,5.75
2018-03-27T20:32:18.115Z,5.68
2018-03-27T20:34:51.739Z,5.76
2018-03-27T20:37:25.366Z,5.74
2018-03-27T20:39:59.053Z,5.71
2018-03-27T20:42:32.734Z,5.75
2018-03-27T20:45:06.355Z,5.72
2018-03-27T20:47:39.939Z,5.72
2018-03-27T20:50:13.687Z,5.69
2018-03-27T20:52:47.399Z,5.69
2018-03-27T20:55:21.157Z,5.70
2018-03-27T20:57:54.976Z,5.68
2018-03-27T21:00:28.632Z,5.53
2018-03-27T21:03:02.265Z,5.59
2018-03-27T21:05:35.828Z,5.70
2018-03-27T21:08:09.405Z,5.69
2018-03-27T21:10:43.200Z,5.77
2018-03-27T21:13:16.930Z,5.76
2018-03-27T21:15:50.688Z,5.69
2018-03-27T21:18:24.274Z,5.71
2018-03-27T21:20:58.080Z,5.71
2018-03-27T21:23:31.886Z,5.65
2018-03-27T21:26:05.428Z,5.69
2018-03-27T21:28:38.981Z,5.72
2018-03-27T21:31:13.079Z,5.76
2018-03-27T21:33:46.941Z,5.78
2018-03-27T21:36:20.730Z,5.86
2018-03-27T21:38:54.230Z,5.85
2018-03-27T21:41:27.772Z,5.83
2018-03-27T21:44:01.391Z,5.77
2018-03-27T21:46:35.068Z,5.86
2018-03-27T21:49:08.605Z,5.89
2018-03-27T21:51:42.453Z,5.87
2018-03-27T21:54:16.070Z,5.93
2018-03-27T21:56:49.851Z,5.93
2018-03-27T21:59:23.499Z,5.84
2018-03-27T22:01:57.144Z,5.91
2018-03-27T22:04:30.770Z,5.89
2018-03-27T22:07:04.338Z,5.87
2018-03-27T22:09:38.093Z,5.93
2018-03-27T22:12:11.642Z,5.94
2018-03-27T22:14:45.342Z,5.92
2018-03-27T22:17:19.015Z,5.94
2018-03-27T22:19:52.592Z,5.90
2018-03-27T22:22:26.175Z,5.92
2018-03-27T22:25:00.043Z,5.97
2018-03-27T22:27:33.757Z,6.01
2018-03-27T22:30:07.433Z,5.95
2018-03-27T22:32:41.023Z,5.99
2018-03-27T22:35:14.668Z,6.07
2018-03-27T22:37:48.458Z,6.00
2018-03-27T22:40:22.198Z,5.94
2018-03-27T22:42:56.052Z,5.94
2018-03-27T22:45:29.819Z,5.99
2018-03-27T22:48:03.465Z,5.98
2018-03-27T22:50:37.258Z,6.02
2018-03-27T22:53:10.940Z,6.06
2018-03-27T22:55:44.621Z,6.06
2018-03-27T22:58:18.195Z,6.04
2018-03-27T23:00:52.052Z,5.99
2018-03-27T23:03:25.882Z,6.03
2018-03-27T23:05:59.628Z,6.14
2018-03-27T23:08:33.226Z,6.15
2018-03-27T23:11:06.929Z,6.15
2018-03-27T23:13:40.595Z,6.14
2018-03-27T23:16:14.208Z,6.15
2018-03-27T23:18:48.036Z,6.18
2018-03-27T23:21:21.649Z,6.20
2018-03-27T23:23:55.518Z,6.18
2018-03-27T23:26:29.088Z,6.19
2018-03-27T23:29:02.671Z,6.13
2018-03-27T23:31:36.306Z,6.14
2018-03-27T23:34:09.936Z,6.17
2018-03-27T23:36:43.523Z,6.03
2018-03-27T23:39:17.358Z,6.17
2018-03-27T23:41:50.962Z,6.12
2018-03-27T23:44:24.493Z,6.05
2018-03-27T23:50:17.876Z,6.22
2018-03-27T23:52:51.507Z,6.20
2018-03-27T23:55:25.244Z,6.25
2018-03-27T23:57:58.833Z,6.24
